sensor_id;sensor_type;location;lat;lon;timestamp;pressure;altitude;pressure_sealevel;temperature;humidity
55517;BME280;41724;51.176;-0.708;2023-01-04T00:00:51;101007.90;;;8.94;100.00
55517;BME280;41724;51.176;-0.708;2023-01-04T00:03:18;101005.14;;;9.21;100.00
55517;BME280;41724;51.176;-0.708;2023-01-04T00:05:45;101016.66;;;9.08;100.00
55517;BME280;41724;51.176;-0.708;2023-01-04T00:08:12;101011.60;;;9.38;100.00
55517;BME280;41724;51.176;-0.708;2023-01-04T00:10:39;100999.17;;;9.37;100.00
55517;BME280;41724;51.176;-0.708;2023-01-04T00:13:07;101003.03;;;9.13;100.00
55517;BME280;41724;51.176;-0.708;2023-01-04T00:15:34;100998.64;;;8.88;100.00
55517;BME280;41724;51.176;-0.708;2023-01-04T00:18:01;101007.89;;;9.04;100.00
55517;BME280;41724;51.176;-0.708;2023-01-04T00:20:28;101000.77;;;9.48;100.00
55517;BME280;41724;51.176;-0.708;2023-01-04T00:22:56;100983.15;;;9.52;100.00
55517;BME280;41724;51.176;-0.708;2023-01-04T00:25:23;100977.03;;;9.91;100.00
55517;BME280;41724;51.176;-0.708;2023-01-04T00:27:52;100972.52;;;9.48;100.00
55517;BME280;41724;51.176;-0.708;2023-01-04T00:30:19;100995.87;;;9.27;100.00
55517;BME280;41724;51.176;-0.708;2023-01-04T00:32:46;100996.08;;;9.11;100.00
55517;BME280;41724;51.176;-0.708;2023-01-04T00:35:13;100979.02;;;9.43;100.00
55517;BME280;41724;51.176;-0.708;2023-01-04T00:37:40;100972.42;;;9.86;100.00
55517;BME280;41724;51.176;-0.708;2023-01-04T00:40:09;100994.44;;;9.75;100.00
55517;BME280;41724;51.176;-0.708;2023-01-04T00:42:41;100977.58;;;9.29;100.00
55517;BME280;41724;51.176;-0.708;2023-01-04T00:45:10;100996.39;;;8.98;100.00
55517;BME280;41724;51.176;-0.708;2023-01-04T00:47:37;101016.82;;;9.24;100.00
55517;BME280;41724;51.176;-0.708;2023-01-04T00:50:09;100992.35;;;8.84;100.00
55517;BME280;41724;51.176;-0.708;2023-01-04T00:52:37;100993.41;;;9.27;100.00
55517;BME280;41724;51.176;-0.708;2023-01-04T00:55:04;100991.84;;;8.99;100.00
55517;BME280;41724;51.176;-0.708;2023-01-04T00:57:32;100991.08;;;8.70;100.00
55517;BME280;41724;51.176;-0.708;2023-01-04T00:59:59;100990.07;;;9.15;100.00
55517;BME280;41724;51.176;-0.708;2023-01-04T01:02:26;101003.59;;;8.88;100.00
55517;BME280;41724;51.176;-0.708;2023-01-04T01:04:53;100989.29;;;9.33;100.00
55517;BME280;41724;51.176;-0.708;2023-01-04T01:07:21;101005.34;;;9.00;100.00
55517;BME280;41724;51.176;-0.708;2023-01-04T01:09:48;100987.15;;;9.31;100.00
55517;BME280;41724;51.176;-0.708;2023-01-04T01:12:15;100987.27;;;9.04;100.00
55517;BME280;41724;51.176;-0.708;2023-01-04T01:14:43;100987.03;;;9.01;100.00
55517;BME280;41724;51.176;-0.708;2023-01-04T01:17:10;100991.15;;;8.26;100.00
55517;BME280;41724;51.176;-0.708;2023-01-04T01:19:37;100999.42;;;8.84;100.00
55517;BME280;41724;51.176;-0.708;2023-01-04T01:22:03;100988.27;;;8.48;100.00
55517;BME280;41724;51.176;-0.708;2023-01-04T01:24:31;100996.84;;;8.95;100.00
55517;BME280;41724;51.176;-0.708;2023-01-04T01:26:58;101012.37;;;9.32;100.00
55517;BME280;41724;51.176;-0.708;2023-01-04T01:29:24;101005.40;;;8.88;100.00
55517;BME280;41724;51.176;-0.708;2023-01-04T01:31:51;101007.41;;;8.93;100.00
55517;BME280;41724;51.176;-0.708;2023-01-04T01:34:19;100996.54;;;8.98;100.00
55517;BME280;41724;51.176;-0.708;2023-01-04T01:36:46;100985.08;;;9.66;100.00
55517;BME280;41724;51.176;-0.708;2023-01-04T01:39:13;100992.58;;;9.27;100.00
55517;BME280;41724;51.176;-0.708;2023-01-04T01:41:41;101008.48;;;9.00;100.00
55517;BME280;41724;51.176;-0.708;2023-01-04T01:44:56;100998.22;;;9.45;100.00
55517;BME280;41724;51.176;-0.708;2023-01-04T01:47:27;101007.44;;;8.96;100.00
55517;BME280;41724;51.176;-0.708;2023-01-04T01:49:54;101011.20;;;9.03;100.00
55517;BME280;41724;51.176;-0.708;2023-01-04T01:52:25;101020.58;;;9.03;100.00
55517;BME280;41724;51.176;-0.708;2023-01-04T01:54:57;101030.58;;;9.35;100.00
55517;BME280;41724;51.176;-0.708;2023-01-04T01:57:31;101025.64;;;9.56;100.00
55517;BME280;41724;51.176;-0.708;2023-01-04T02:00:03;101018.18;;;10.20;100.00
55517;BME280;41724;51.176;-0.708;2023-01-04T02:02:32;101023.22;;;9.62;100.00
55517;BME280;41724;51.176;-0.708;2023-01-04T02:04:59;101017.62;;;9.64;100.00
55517;BME280;41724;51.176;-0.708;2023-01-04T02:07:28;101029.80;;;9.76;100.00
55517;BME280;41724;51.176;-0.708;2023-01-04T02:09:55;101032.51;;;9.76;100.00
55517;BME280;41724;51.176;-0.708;2023-01-04T02:12:24;101044.31;;;9.29;100.00
55517;BME280;41724;51.176;-0.708;2023-01-04T02:14:51;101040.51;;;9.50;100.00
55517;BME280;41724;51.176;-0.708;2023-01-04T02:17:26;101023.51;;;9.82;100.00
55517;BME280;41724;51.176;-0.708;2023-01-04T02:20:16;101019.64;;;9.47;100.00
55517;BME280;41724;51.176;-0.708;2023-01-04T02:23:25;101027.64;;;9.22;100.00
55517;BME280;41724;51.176;-0.708;2023-01-04T02:26:17;101010.91;;;10.22;100.00
55517;BME280;41724;51.176;-0.708;2023-01-04T02:30:54;101006.87;;;9.94;100.00
55517;BME280;41724;51.176;-0.708;2023-01-04T02:33:33;101011.67;;;10.39;100.00
55517;BME280;41724;51.176;-0.708;2023-01-04T02:36:13;101001.98;;;9.81;100.00
55517;BME280;41724;51.176;-0.708;2023-01-04T02:38:53;101009.57;;;9.02;100.00
55517;BME280;41724;51.176;-0.708;2023-01-04T02:41:28;100997.80;;;9.42;100.00
55517;BME280;41724;51.176;-0.708;2023-01-04T02:44:05;100987.94;;;9.49;100.00
55517;BME280;41724;51.176;-0.708;2023-01-04T02:46:40;100985.52;;;9.34;100.00
55517;BME280;41724;51.176;-0.708;2023-01-04T02:49:09;100977.70;;;9.31;100.00
55517;BME280;41724;51.176;-0.708;2023-01-04T02:51:37;100970.91;;;9.42;100.00
55517;BME280;41724;51.176;-0.708;2023-01-04T02:54:07;100961.61;;;9.86;100.00
55517;BME280;41724;51.176;-0.708;2023-01-04T02:56:57;100964.07;;;10.05;100.00
55517;BME280;41724;51.176;-0.708;2023-01-04T02:59:39;100963.02;;;9.66;100.00
55517;BME280;41724;51.176;-0.708;2023-01-04T03:02:27;100952.02;;;9.98;100.00
55517;BME280;41724;51.176;-0.708;2023-01-04T03:05:03;100957.59;;;9.42;100.00
55517;BME280;41724;51.176;-0.708;2023-01-04T03:07:38;100957.43;;;8.83;100.00
55517;BME280;41724;51.176;-0.708;2023-01-04T03:10:13;100956.44;;;9.60;100.00
55517;BME280;41724;51.176;-0.708;2023-01-04T03:12:49;100961.24;;;9.13;100.00
55517;BME280;41724;51.176;-0.708;2023-01-04T03:15:23;100940.08;;;9.24;100.00
55517;BME280;41724;51.176;-0.708;2023-01-04T03:17:54;100929.89;;;9.66;100.00
55517;BME280;41724;51.176;-0.708;2023-01-04T03:20:25;100930.33;;;9.16;100.00
55517;BME280;41724;51.176;-0.708;2023-01-04T03:22:56;100933.94;;;9.37;100.00
55517;BME280;41724;51.176;-0.708;2023-01-04T03:25:29;100929.46;;;9.37;100.00
55517;BME280;41724;51.176;-0.708;2023-01-04T03:27:59;100937.47;;;9.62;100.00
55517;BME280;41724;51.176;-0.708;2023-01-04T03:30:29;100931.85;;;9.69;100.00
55517;BME280;41724;51.176;-0.708;2023-01-04T03:33:02;100925.46;;;10.09;100.00
55517;BME280;41724;51.176;-0.708;2023-01-04T03:35:36;100925.11;;;10.08;100.00
55517;BME280;41724;51.176;-0.708;2023-01-04T03:38:09;100915.34;;;9.29;100.00
55517;BME280;41724;51.176;-0.708;2023-01-04T03:40:42;100917.92;;;9.25;100.00
55517;BME280;41724;51.176;-0.708;2023-01-04T03:43:16;100949.74;;;9.18;100.00
55517;BME280;41724;51.176;-0.708;2023-01-04T03:45:49;100923.67;;;9.33;100.00
55517;BME280;41724;51.176;-0.708;2023-01-04T03:48:20;100917.49;;;8.83;100.00
55517;BME280;41724;51.176;-0.708;2023-01-04T03:50:50;100916.61;;;9.72;100.00
55517;BME280;41724;51.176;-0.708;2023-01-04T03:53:19;100924.88;;;9.37;100.00
55517;BME280;41724;51.176;-0.708;2023-01-04T03:55:48;100911.70;;;9.92;100.00
55517;BME280;41724;51.176;-0.708;2023-01-04T03:58:17;100925.75;;;10.13;100.00
55517;BME280;41724;51.176;-0.708;2023-01-04T04:00:45;100931.62;;;10.25;100.00
55517;BME280;41724;51.176;-0.708;2023-01-04T04:03:12;100941.60;;;10.12;100.00
55517;BME280;41724;51.176;-0.708;2023-01-04T04:05:41;100910.40;;;9.68;100.00
55517;BME280;41724;51.176;-0.708;2023-01-04T04:08:08;100917.79;;;9.50;100.00
55517;BME280;41724;51.176;-0.708;2023-01-04T04:10:36;100921.25;;;10.32;100.00
55517;BME280;41724;51.176;-0.708;2023-01-04T04:13:02;100912.27;;;10.43;100.00
55517;BME280;41724;51.176;-0.708;2023-01-04T04:15:30;100931.31;;;9.98;100.00
55517;BME280;41724;51.176;-0.708;2023-01-04T04:17:57;100917.13;;;9.35;100.00
55517;BME280;41724;51.176;-0.708;2023-01-04T04:20:24;100917.00;;;9.60;100.00
55517;BME280;41724;51.176;-0.708;2023-01-04T04:22:51;100915.32;;;9.67;100.00
55517;BME280;41724;51.176;-0.708;2023-01-04T04:25:18;100924.54;;;10.14;100.00
55517;BME280;41724;51.176;-0.708;2023-01-04T04:27:45;100895.57;;;9.36;100.00
55517;BME280;41724;51.176;-0.708;2023-01-04T04:30:12;100894.64;;;10.33;100.00
55517;BME280;41724;51.176;-0.708;2023-01-04T04:32:40;100892.85;;;10.27;100.00
55517;BME280;41724;51.176;-0.708;2023-01-04T04:35:08;100893.23;;;10.01;100.00
55517;BME280;41724;51.176;-0.708;2023-01-04T04:37:36;100894.63;;;9.76;100.00
55517;BME280;41724;51.176;-0.708;2023-01-04T04:40:03;100903.15;;;9.29;100.00
55517;BME280;41724;51.176;-0.708;2023-01-04T04:42:31;100889.64;;;9.45;100.00
55517;BME280;41724;51.176;-0.708;2023-01-04T04:44:58;100882.35;;;9.36;100.00
55517;BME280;41724;51.176;-0.708;2023-01-04T04:47:29;100868.27;;;9.90;100.00
55517;BME280;41724;51.176;-0.708;2023-01-04T04:49:57;100854.43;;;9.83;100.00
55517;BME280;41724;51.176;-0.708;2023-01-04T04:52:24;100863.61;;;9.54;100.00
55517;BME280;41724;51.176;-0.708;2023-01-04T04:54:51;100850.51;;;10.00;100.00
55517;BME280;41724;51.176;-0.708;2023-01-04T04:57:18;100852.77;;;9.72;100.00
55517;BME280;41724;51.176;-0.708;2023-01-04T04:59:45;100841.37;;;9.36;100.00
55517;BME280;41724;51.176;-0.708;2023-01-04T05:02:13;100839.44;;;9.71;100.00
55517;BME280;41724;51.176;-0.708;2023-01-04T05:04:39;100861.06;;;10.05;100.00
55517;BME280;41724;51.176;-0.708;2023-01-04T05:07:07;100849.92;;;9.79;100.00
55517;BME280;41724;51.176;-0.708;2023-01-04T05:09:34;100848.35;;;10.04;100.00
55517;BME280;41724;51.176;-0.708;2023-01-04T05:12:01;100852.58;;;9.45;100.00
55517;BME280;41724;51.176;-0.708;2023-01-04T05:14:29;100850.10;;;10.04;100.00
55517;BME280;41724;51.176;-0.708;2023-01-04T05:16:55;100852.70;;;10.06;100.00
55517;BME280;41724;51.176;-0.708;2023-01-04T05:19:22;100846.85;;;9.95;100.00
55517;BME280;41724;51.176;-0.708;2023-01-04T05:21:50;100853.70;;;10.40;100.00
55517;BME280;41724;51.176;-0.708;2023-01-04T05:24:17;100850.95;;;9.63;100.00
55517;BME280;41724;51.176;-0.708;2023-01-04T05:26:44;100850.65;;;10.00;100.00
55517;BME280;41724;51.176;-0.708;2023-01-04T05:29:12;100843.21;;;9.60;100.00
55517;BME280;41724;51.176;-0.708;2023-01-04T05:31:39;100836.66;;;10.01;100.00
55517;BME280;41724;51.176;-0.708;2023-01-04T05:34:06;100827.52;;;9.80;100.00
55517;BME280;41724;51.176;-0.708;2023-01-04T05:36:33;100806.72;;;10.59;100.00
55517;BME280;41724;51.176;-0.708;2023-01-04T05:39:00;100845.06;;;10.59;100.00
55517;BME280;41724;51.176;-0.708;2023-01-04T05:41:27;100863.75;;;9.79;100.00
55517;BME280;41724;51.176;-0.708;2023-01-04T05:43:54;100861.35;;;10.99;100.00
55517;BME280;41724;51.176;-0.708;2023-01-04T05:46:21;100871.96;;;11.45;100.00
55517;BME280;41724;51.176;-0.708;2023-01-04T05:48:49;100877.35;;;10.95;100.00
55517;BME280;41724;51.176;-0.708;2023-01-04T05:51:17;100875.27;;;10.21;100.00
55517;BME280;41724;51.176;-0.708;2023-01-04T05:53:44;100876.86;;;9.96;100.00
55517;BME280;41724;51.176;-0.708;2023-01-04T05:56:11;100861.30;;;10.51;100.00
55517;BME280;41724;51.176;-0.708;2023-01-04T05:58:38;100879.22;;;10.39;100.00
55517;BME280;41724;51.176;-0.708;2023-01-04T06:01:05;100869.39;;;9.58;100.00
55517;BME280;41724;51.176;-0.708;2023-01-04T06:03:32;100858.57;;;10.18;100.00
55517;BME280;41724;51.176;-0.708;2023-01-04T06:05:59;100853.90;;;10.46;100.00
55517;BME280;41724;51.176;-0.708;2023-01-04T06:08:27;100868.36;;;9.79;100.00
55517;BME280;41724;51.176;-0.708;2023-01-04T06:10:54;100875.36;;;10.14;100.00
55517;BME280;41724;51.176;-0.708;2023-01-04T06:13:20;100870.06;;;10.29;100.00
55517;BME280;41724;51.176;-0.708;2023-01-04T06:15:47;100863.69;;;10.41;100.00
55517;BME280;41724;51.176;-0.708;2023-01-04T06:18:16;100868.53;;;10.14;100.00
55517;BME280;41724;51.176;-0.708;2023-01-04T06:20:43;100868.65;;;10.17;100.00
55517;BME280;41724;51.176;-0.708;2023-01-04T06:23:10;100890.90;;;9.76;100.00
55517;BME280;41724;51.176;-0.708;2023-01-04T06:25:37;100876.85;;;10.31;100.00
55517;BME280;41724;51.176;-0.708;2023-01-04T06:28:04;100881.97;;;9.96;100.00
55517;BME280;41724;51.176;-0.708;2023-01-04T06:30:31;100868.82;;;10.79;100.00
55517;BME280;41724;51.176;-0.708;2023-01-04T06:32:58;100878.72;;;11.15;100.00
55517;BME280;41724;51.176;-0.708;2023-01-04T06:35:25;100879.26;;;10.77;100.00
55517;BME280;41724;51.176;-0.708;2023-01-04T06:37:52;100886.44;;;10.97;100.00
55517;BME280;41724;51.176;-0.708;2023-01-04T06:40:19;100885.82;;;10.98;100.00
55517;BME280;41724;51.176;-0.708;2023-01-04T06:42:46;100899.47;;;10.65;100.00
55517;BME280;41724;51.176;-0.708;2023-01-04T06:45:14;100883.76;;;10.48;100.00
55517;BME280;41724;51.176;-0.708;2023-01-04T06:47:42;100910.56;;;10.40;100.00
55517;BME280;41724;51.176;-0.708;2023-01-04T06:50:09;100910.69;;;10.75;100.00
55517;BME280;41724;51.176;-0.708;2023-01-04T06:52:37;100903.88;;;11.60;100.00
55517;BME280;41724;51.176;-0.708;2023-01-04T06:55:04;100917.88;;;10.46;100.00
55517;BME280;41724;51.176;-0.708;2023-01-04T06:57:31;100918.53;;;10.76;100.00
55517;BME280;41724;51.176;-0.708;2023-01-04T06:59:58;100928.02;;;10.24;100.00
55517;BME280;41724;51.176;-0.708;2023-01-04T07:02:25;100928.33;;;11.16;100.00
55517;BME280;41724;51.176;-0.708;2023-01-04T07:04:52;100936.12;;;10.49;100.00
55517;BME280;41724;51.176;-0.708;2023-01-04T07:07:19;100946.42;;;11.09;100.00
55517;BME280;41724;51.176;-0.708;2023-01-04T07:09:46;100948.37;;;10.96;100.00
55517;BME280;41724;51.176;-0.708;2023-01-04T07:12:13;100969.04;;;10.85;100.00
55517;BME280;41724;51.176;-0.708;2023-01-04T07:14:40;100952.63;;;10.61;100.00
55517;BME280;41724;51.176;-0.708;2023-01-04T07:17:07;100946.06;;;10.31;100.00
55517;BME280;41724;51.176;-0.708;2023-01-04T07:19:34;100949.49;;;11.49;100.00
55517;BME280;41724;51.176;-0.708;2023-01-04T07:22:01;100954.35;;;10.59;100.00
55517;BME280;41724;51.176;-0.708;2023-01-04T07:24:28;100959.23;;;10.30;100.00
55517;BME280;41724;51.176;-0.708;2023-01-04T07:26:55;100950.20;;;11.08;100.00
55517;BME280;41724;51.176;-0.708;2023-01-04T07:29:22;100937.31;;;11.06;100.00
55517;BME280;41724;51.176;-0.708;2023-01-04T07:31:50;100954.82;;;10.62;100.00
55517;BME280;41724;51.176;-0.708;2023-01-04T07:34:20;100943.80;;;10.33;100.00
55517;BME280;41724;51.176;-0.708;2023-01-04T07:36:48;100948.87;;;10.96;100.00
55517;BME280;41724;51.176;-0.708;2023-01-04T07:39:16;100940.92;;;11.21;99.89
55517;BME280;41724;51.176;-0.708;2023-01-04T07:41:44;100943.83;;;10.90;100.00
55517;BME280;41724;51.176;-0.708;2023-01-04T07:44:12;100944.33;;;11.32;99.40
55517;BME280;41724;51.176;-0.708;2023-01-04T07:46:40;100936.16;;;10.98;100.00
55517;BME280;41724;51.176;-0.708;2023-01-04T07:49:10;100955.77;;;10.96;99.69
55517;BME280;41724;51.176;-0.708;2023-01-04T07:51:38;100969.65;;;11.15;98.95
55517;BME280;41724;51.176;-0.708;2023-01-04T07:54:06;100955.37;;;10.75;100.00
55517;BME280;41724;51.176;-0.708;2023-01-04T07:56:33;100961.88;;;10.96;99.34
55517;BME280;41724;51.176;-0.708;2023-01-04T07:59:00;100968.83;;;10.76;98.05
55517;BME280;41724;51.176;-0.708;2023-01-04T08:01:27;100968.50;;;11.40;94.02
55517;BME280;41724;51.176;-0.708;2023-01-04T08:03:54;100980.56;;;11.64;93.34
55517;BME280;41724;51.176;-0.708;2023-01-04T08:06:21;100991.63;;;11.89;94.32
55517;BME280;41724;51.176;-0.708;2023-01-04T08:08:48;100998.52;;;11.34;94.61
55517;BME280;41724;51.176;-0.708;2023-01-04T08:11:16;101001.14;;;10.72;98.49
55517;BME280;41724;51.176;-0.708;2023-01-04T08:13:44;100998.90;;;11.53;94.75
55517;BME280;41724;51.176;-0.708;2023-01-04T08:16:19;100999.06;;;10.94;95.90
55517;BME280;41724;51.176;-0.708;2023-01-04T08:18:47;100995.58;;;10.90;97.36
55517;BME280;41724;51.176;-0.708;2023-01-04T08:21:14;101007.53;;;10.49;99.12
55517;BME280;41724;51.176;-0.708;2023-01-04T08:23:41;100998.43;;;10.92;97.18
55517;BME280;41724;51.176;-0.708;2023-01-04T08:26:12;100997.62;;;11.12;94.91
55517;BME280;41724;51.176;-0.708;2023-01-04T08:28:39;100997.49;;;11.01;94.02
55517;BME280;41724;51.176;-0.708;2023-01-04T08:31:09;101006.57;;;11.40;93.03
55517;BME280;41724;51.176;-0.708;2023-01-04T08:33:38;101003.00;;;11.05;95.39
55517;BME280;41724;51.176;-0.708;2023-01-04T08:36:07;101012.84;;;10.96;95.53
55517;BME280;41724;51.176;-0.708;2023-01-04T08:38:34;101011.26;;;11.48;93.56
55517;BME280;41724;51.176;-0.708;2023-01-04T08:41:01;101020.92;;;11.19;95.11
55517;BME280;41724;51.176;-0.708;2023-01-04T08:43:28;101019.08;;;10.73;95.77
55517;BME280;41724;51.176;-0.708;2023-01-04T08:45:55;101022.32;;;11.56;93.21
55517;BME280;41724;51.176;-0.708;2023-01-04T08:48:23;101019.95;;;11.27;92.63
55517;BME280;41724;51.176;-0.708;2023-01-04T08:50:50;101032.09;;;11.42;91.88
55517;BME280;41724;51.176;-0.708;2023-01-04T08:53:17;101030.30;;;11.56;92.07
55517;BME280;41724;51.176;-0.708;2023-01-04T08:55:48;101030.45;;;11.09;94.44
55517;BME280;41724;51.176;-0.708;2023-01-04T08:58:15;101042.48;;;11.17;94.07
55517;BME280;41724;51.176;-0.708;2023-01-04T09:00:42;101038.97;;;10.58;97.41
55517;BME280;41724;51.176;-0.708;2023-01-04T09:03:14;101024.57;;;11.36;94.87
55517;BME280;41724;51.176;-0.708;2023-01-04T09:05:41;101028.75;;;11.11;93.92
55517;BME280;41724;51.176;-0.708;2023-01-04T09:08:09;101046.12;;;10.72;96.27
55517;BME280;41724;51.176;-0.708;2023-01-04T09:10:38;101051.30;;;10.63;98.15
55517;BME280;41724;51.176;-0.708;2023-01-04T09:13:06;101056.22;;;10.54;98.10
55517;BME280;41724;51.176;-0.708;2023-01-04T09:15:33;101044.14;;;10.32;99.87
55517;BME280;41724;51.176;-0.708;2023-01-04T09:18:00;101044.25;;;11.53;94.25
55517;BME280;41724;51.176;-0.708;2023-01-04T09:20:28;101048.16;;;11.05;94.85
55517;BME280;41724;51.176;-0.708;2023-01-04T09:22:56;101054.81;;;11.48;93.52
55517;BME280;41724;51.176;-0.708;2023-01-04T09:25:24;101059.87;;;11.21;94.87
55517;BME280;41724;51.176;-0.708;2023-01-04T09:27:51;101062.98;;;11.07;93.43
55517;BME280;41724;51.176;-0.708;2023-01-04T09:30:19;101070.45;;;11.46;93.34
55517;BME280;41724;51.176;-0.708;2023-01-04T09:32:47;101067.32;;;11.36;92.37
55517;BME280;41724;51.176;-0.708;2023-01-04T09:35:14;101084.77;;;10.79;94.59
55517;BME280;41724;51.176;-0.708;2023-01-04T09:37:42;101083.34;;;11.18;94.22
55517;BME280;41724;51.176;-0.708;2023-01-04T09:40:19;101072.92;;;10.82;95.23
55517;BME280;41724;51.176;-0.708;2023-01-04T09:42:59;101070.50;;;11.26;92.80
55517;BME280;41724;51.176;-0.708;2023-01-04T09:45:28;101080.86;;;11.43;93.21
55517;BME280;41724;51.176;-0.708;2023-01-04T09:47:58;101079.63;;;10.45;97.80
55517;BME280;41724;51.176;-0.708;2023-01-04T09:50:35;101066.00;;;11.09;94.07
55517;BME280;41724;51.176;-0.708;2023-01-04T09:53:10;101065.99;;;11.29;91.72
55517;BME280;41724;51.176;-0.708;2023-01-04T09:55:43;101072.07;;;10.60;95.86
55517;BME280;41724;51.176;-0.708;2023-01-04T09:58:19;101063.62;;;10.89;95.61
55517;BME280;41724;51.176;-0.708;2023-01-04T10:00:51;101062.99;;;10.91;95.28
55517;BME280;41724;51.176;-0.708;2023-01-04T10:03:23;101067.73;;;11.10;92.83
55517;BME280;41724;51.176;-0.708;2023-01-04T10:05:53;101079.18;;;11.36;91.16
55517;BME280;41724;51.176;-0.708;2023-01-04T10:08:21;101081.46;;;11.31;91.43
55517;BME280;41724;51.176;-0.708;2023-01-04T10:10:58;101083.28;;;11.35;89.81
55517;BME280;41724;51.176;-0.708;2023-01-04T10:13:43;101086.34;;;11.68;90.14
55517;BME280;41724;51.176;-0.708;2023-01-04T10:16:19;101090.31;;;11.38;92.32
55517;BME280;41724;51.176;-0.708;2023-01-04T10:18:57;101084.17;;;11.28;92.09
55517;BME280;41724;51.176;-0.708;2023-01-04T10:21:33;101087.81;;;10.75;93.83
55517;BME280;41724;51.176;-0.708;2023-01-04T10:24:18;101075.37;;;11.02;93.15
55517;BME280;41724;51.176;-0.708;2023-01-04T10:26:58;101084.17;;;10.80;93.39
55517;BME280;41724;51.176;-0.708;2023-01-04T10:29:38;101107.88;;;11.53;90.48
55517;BME280;41724;51.176;-0.708;2023-01-04T10:32:15;101086.75;;;11.35;91.39
55517;BME280;41724;51.176;-0.708;2023-01-04T10:34:44;101095.14;;;11.25;91.79
55517;BME280;41724;51.176;-0.708;2023-01-04T10:37:13;101097.74;;;10.73;93.73
55517;BME280;41724;51.176;-0.708;2023-01-04T10:39:45;101092.17;;;10.80;92.71
55517;BME280;41724;51.176;-0.708;2023-01-04T10:42:19;101097.59;;;10.89;91.64
55517;BME280;41724;51.176;-0.708;2023-01-04T10:45:00;101098.10;;;10.88;93.62
55517;BME280;41724;51.176;-0.708;2023-01-04T10:47:34;101101.98;;;10.81;94.29
55517;BME280;41724;51.176;-0.708;2023-01-04T10:50:10;101084.62;;;10.32;97.01
55517;BME280;41724;51.176;-0.708;2023-01-04T10:52:49;101096.67;;;10.42;96.46
55517;BME280;41724;51.176;-0.708;2023-01-04T10:55:24;101090.11;;;10.66;93.38
55517;BME280;41724;51.176;-0.708;2023-01-04T10:57:57;101086.68;;;10.09;97.51
55517;BME280;41724;51.176;-0.708;2023-01-04T11:00:30;101089.87;;;10.36;95.43
55517;BME280;41724;51.176;-0.708;2023-01-04T11:03:05;101097.94;;;10.89;92.55
55517;BME280;41724;51.176;-0.708;2023-01-04T11:05:40;101090.38;;;11.28;90.15
55517;BME280;41724;51.176;-0.708;2023-01-04T11:08:12;101103.07;;;10.89;91.91
55517;BME280;41724;51.176;-0.708;2023-01-04T11:10:48;101103.82;;;10.67;93.07
55517;BME280;41724;51.176;-0.708;2023-01-04T11:13:16;101087.04;;;11.09;91.92
55517;BME280;41724;51.176;-0.708;2023-01-04T11:15:44;101090.54;;;11.15;90.56
55517;BME280;41724;51.176;-0.708;2023-01-04T11:18:13;101087.86;;;11.11;91.96
55517;BME280;41724;51.176;-0.708;2023-01-04T11:20:41;101089.97;;;11.37;88.52
55517;BME280;41724;51.176;-0.708;2023-01-04T11:23:15;101090.98;;;11.40;89.39
55517;BME280;41724;51.176;-0.708;2023-01-04T11:25:48;101085.80;;;10.87;89.54
55517;BME280;41724;51.176;-0.708;2023-01-04T11:28:20;101090.89;;;10.61;90.68
55517;BME280;41724;51.176;-0.708;2023-01-04T11:30:55;101099.76;;;10.41;91.56
55517;BME280;41724;51.176;-0.708;2023-01-04T11:33:25;101090.58;;;11.14;91.32
55517;BME280;41724;51.176;-0.708;2023-01-04T11:35:54;101096.56;;;10.91;91.94
55517;BME280;41724;51.176;-0.708;2023-01-04T11:38:23;101097.76;;;11.26;90.75
55517;BME280;41724;51.176;-0.708;2023-01-04T11:40:59;101099.74;;;11.57;87.01
55517;BME280;41724;51.176;-0.708;2023-01-04T11:43:33;101105.04;;;11.50;88.43
55517;BME280;41724;51.176;-0.708;2023-01-04T11:46:04;101102.85;;;11.15;88.77
55517;BME280;41724;51.176;-0.708;2023-01-04T11:48:35;101101.48;;;11.04;89.60
55517;BME280;41724;51.176;-0.708;2023-01-04T11:51:04;101093.91;;;11.20;88.00
55517;BME280;41724;51.176;-0.708;2023-01-04T11:53:34;101102.04;;;10.60;90.96
55517;BME280;41724;51.176;-0.708;2023-01-04T11:56:12;101112.30;;;11.19;88.05
55517;BME280;41724;51.176;-0.708;2023-01-04T11:58:41;101096.73;;;11.14;86.81
55517;BME280;41724;51.176;-0.708;2023-01-04T12:01:20;101103.11;;;11.54;85.62
55517;BME280;41724;51.176;-0.708;2023-01-04T12:03:48;101096.81;;;11.25;86.69
55517;BME280;41724;51.176;-0.708;2023-01-04T12:06:29;101088.02;;;10.70;88.94
55517;BME280;41724;51.176;-0.708;2023-01-04T12:08:57;101079.31;;;10.76;89.61
55517;BME280;41724;51.176;-0.708;2023-01-04T12:11:27;101093.68;;;10.80;87.24
55517;BME280;41724;51.176;-0.708;2023-01-04T12:13:57;101089.04;;;10.49;89.14
55517;BME280;41724;51.176;-0.708;2023-01-04T12:16:40;101098.05;;;10.57;87.09
55517;BME280;41724;51.176;-0.708;2023-01-04T12:19:14;101088.76;;;11.58;82.62
55517;BME280;41724;51.176;-0.708;2023-01-04T12:21:45;101094.71;;;10.97;83.36
55517;BME280;41724;51.176;-0.708;2023-01-04T12:24:17;101090.37;;;11.17;85.33
55517;BME280;41724;51.176;-0.708;2023-01-04T12:26:45;101090.25;;;11.23;83.05
55517;BME280;41724;51.176;-0.708;2023-01-04T12:30:34;101083.25;;;10.64;85.63
55517;BME280;41724;51.176;-0.708;2023-01-04T12:33:36;101078.82;;;11.56;82.40
55517;BME280;41724;51.176;-0.708;2023-01-04T12:36:05;101073.59;;;11.55;83.55
55517;BME280;41724;51.176;-0.708;2023-01-04T12:39:34;101068.42;;;11.21;82.75
55517;BME280;41724;51.176;-0.708;2023-01-04T12:42:19;101066.56;;;11.63;81.27
55517;BME280;41724;51.176;-0.708;2023-01-04T12:45:21;101063.93;;;11.43;81.80
55517;BME280;41724;51.176;-0.708;2023-01-04T12:47:51;101076.44;;;11.84;81.28
55517;BME280;41724;51.176;-0.708;2023-01-04T12:50:20;101064.32;;;11.10;82.94
55517;BME280;41724;51.176;-0.708;2023-01-04T12:52:48;101062.13;;;11.09;84.70
55517;BME280;41724;51.176;-0.708;2023-01-04T12:56:19;101051.48;;;11.44;83.46
55517;BME280;41724;51.176;-0.708;2023-01-04T12:59:31;101064.08;;;11.77;82.32